sensor_id;sensor_type;location;lat;lon;timestamp;pressure;altitude;pressure_sealevel;temperature;humidity
54948;BME280;41113;41.882;12.530;2023-05-11T00:00:03;100507.44;;;17.91;80.43
54948;BME280;41113;41.882;12.530;2023-05-11T00:02:28;100497.50;;;17.83;80.72
54948;BME280;41113;41.882;12.530;2023-05-11T00:04:55;100497.13;;;17.71;81.67
54948;BME280;41113;41.882;12.530;2023-05-11T00:07:20;100494.97;;;17.67;81.97
54948;BME280;41113;41.882;12.530;2023-05-11T00:09:46;100493.63;;;17.63;82.21
54948;BME280;41113;41.882;12.530;2023-05-11T00:12:11;100486.06;;;17.58;82.47
54948;BME280;41113;41.882;12.530;2023-05-11T00:14:37;100499.63;;;17.58;82.49
54948;BME280;41113;41.882;12.530;2023-05-11T00:17:02;100495.94;;;17.51;83.02
54948;BME280;41113;41.882;12.530;2023-05-11T00:19:28;100496.78;;;17.52;83.11
54948;BME280;41113;41.882;12.530;2023-05-11T00:21:56;100498.00;;;17.49;83.03
54948;BME280;41113;41.882;12.530;2023-05-11T00:24:22;100491.66;;;17.42;83.62
54948;BME280;41113;41.882;12.530;2023-05-11T00:26:49;100494.06;;;17.37;84.13
54948;BME280;41113;41.882;12.530;2023-05-11T00:29:14;100497.81;;;17.36;83.92
54948;BME280;41113;41.882;12.530;2023-05-11T00:31:40;100497.81;;;17.36;84.14
54948;BME280;41113;41.882;12.530;2023-05-11T00:34:05;100502.88;;;17.39;84.15
54948;BME280;41113;41.882;12.530;2023-05-11T00:36:31;100493.69;;;17.40;84.26
54948;BME280;41113;41.882;12.530;2023-05-11T00:38:57;100493.03;;;17.38;84.20
54948;BME280;41113;41.882;12.530;2023-05-11T00:41:22;100494.81;;;17.31;84.83
54948;BME280;41113;41.882;12.530;2023-05-11T00:43:48;100498.56;;;17.30;84.75
54948;BME280;41113;41.882;12.530;2023-05-11T00:46:13;100494.34;;;17.27;85.80
54948;BME280;41113;41.882;12.530;2023-05-11T00:48:39;100498.56;;;17.30;85.05
54948;BME280;41113;41.882;12.530;2023-05-11T00:51:05;100495.47;;;17.33;85.00
54948;BME280;41113;41.882;12.530;2023-05-11T00:53:31;100491.34;;;17.37;84.98
54948;BME280;41113;41.882;12.530;2023-05-11T00:55:57;100492.38;;;17.36;84.95
54948;BME280;41113;41.882;12.530;2023-05-11T00:58:24;100488.91;;;17.27;85.55
54948;BME280;41113;41.882;12.530;2023-05-11T01:00:49;100491.25;;;17.30;85.43
54948;BME280;41113;41.882;12.530;2023-05-11T01:03:15;100490.41;;;17.30;85.85
54948;BME280;41113;41.882;12.530;2023-05-11T01:08:25;100486.03;;;17.29;85.70
54948;BME280;41113;41.882;12.530;2023-05-11T01:11:03;100488.06;;;17.27;85.78
54948;BME280;41113;41.882;12.530;2023-05-11T01:13:39;100491.88;;;17.18;86.58
54948;BME280;41113;41.882;12.530;2023-05-11T01:16:21;100494.13;;;17.14;86.70
54948;BME280;41113;41.882;12.530;2023-05-11T01:19:15;100492.97;;;17.08;86.71
54948;BME280;41113;41.882;12.530;2023-05-11T01:21:43;100489.59;;;17.06;86.95
54948;BME280;41113;41.882;12.530;2023-05-11T01:24:14;100489.25;;;17.09;86.99
54948;BME280;41113;41.882;12.530;2023-05-11T01:32:19;100503.47;;;17.11;87.04
54948;BME280;41113;41.882;12.530;2023-05-11T01:34:46;100499.44;;;17.07;87.09
54948;BME280;41113;41.882;12.530;2023-05-11T01:37:18;100503.53;;;17.03;87.73
54948;BME280;41113;41.882;12.530;2023-05-11T01:40:01;100503.38;;;17.05;87.80
54948;BME280;41113;41.882;12.530;2023-05-11T01:42:31;100492.44;;;16.90;88.74
54948;BME280;41113;41.882;12.530;2023-05-11T01:45:00;100492.81;;;16.87;88.80
54948;BME280;41113;41.882;12.530;2023-05-11T01:47:28;100492.22;;;16.77;89.86
54948;BME280;41113;41.882;12.530;2023-05-11T01:49:56;100489.81;;;16.82;89.60
54948;BME280;41113;41.882;12.530;2023-05-11T01:52:24;100492.78;;;16.95;89.05
54948;BME280;41113;41.882;12.530;2023-05-11T01:54:52;100497.09;;;17.04;87.97
54948;BME280;41113;41.882;12.530;2023-05-11T01:57:20;100492.88;;;17.02;87.92
54948;BME280;41113;41.882;12.530;2023-05-11T01:59:49;100487.94;;;17.05;87.75
54948;BME280;41113;41.882;12.530;2023-05-11T02:02:17;100489.91;;;17.11;87.23
54948;BME280;41113;41.882;12.530;2023-05-11T02:04:43;100488.09;;;17.04;88.28
54948;BME280;41113;41.882;12.530;2023-05-11T02:07:10;100498.50;;;17.00;88.29
54948;BME280;41113;41.882;12.530;2023-05-11T02:09:37;100493.63;;;16.96;88.54
54948;BME280;41113;41.882;12.530;2023-05-11T02:12:04;100489.69;;;16.98;88.68
54948;BME280;41113;41.882;12.530;2023-05-11T02:14:32;100489.69;;;16.98;88.52
54948;BME280;41113;41.882;12.530;2023-05-11T02:17:00;100486.97;;;16.98;88.50
54948;BME280;41113;41.882;12.530;2023-05-11T02:19:28;100485.94;;;16.99;88.26
54948;BME280;41113;41.882;12.530;2023-05-11T02:21:54;100486.97;;;16.98;88.31
54948;BME280;41113;41.882;12.530;2023-05-11T02:24:20;100491.00;;;17.02;88.47
54948;BME280;41113;41.882;12.530;2023-05-11T02:26:47;100488.59;;;17.07;88.35
54948;BME280;41113;41.882;12.530;2023-05-11T02:29:12;100484.00;;;17.08;88.11
54948;BME280;41113;41.882;12.530;2023-05-11T02:31:42;100485.22;;;17.05;88.05
54948;BME280;41113;41.882;12.530;2023-05-11T02:34:23;100479.56;;;16.92;88.85
54948;BME280;41113;41.882;12.530;2023-05-11T02:36:57;100481.44;;;16.92;88.63
54948;BME280;41113;41.882;12.530;2023-05-11T02:39:29;100483.66;;;16.88;88.73
54948;BME280;41113;41.882;12.530;2023-05-11T02:41:59;100482.28;;;16.92;88.21
54948;BME280;41113;41.882;12.530;2023-05-11T02:44:28;100475.84;;;16.93;87.78
54948;BME280;41113;41.882;12.530;2023-05-11T02:46:59;100484.25;;;16.98;87.57
54948;BME280;41113;41.882;12.530;2023-05-11T02:49:28;100479.88;;;16.97;87.46
54948;BME280;41113;41.882;12.530;2023-05-11T02:51:55;100480.91;;;16.96;87.78
54948;BME280;41113;41.882;12.530;2023-05-11T02:54:22;100476.31;;;16.97;87.86
54948;BME280;41113;41.882;12.530;2023-05-11T02:56:48;100474.25;;;16.99;87.64
54948;BME280;41113;41.882;12.530;2023-05-11T02:59:15;100481.91;;;16.95;87.70
54948;BME280;41113;41.882;12.530;2023-05-11T03:01:41;100478.72;;;16.92;87.47
54948;BME280;41113;41.882;12.530;2023-05-11T03:04:07;100478.72;;;16.92;87.51
54948;BME280;41113;41.882;12.530;2023-05-11T03:06:32;100473.63;;;16.89;87.55
54948;BME280;41113;41.882;12.530;2023-05-11T03:08:59;100476.91;;;16.84;87.59
54948;BME280;41113;41.882;12.530;2023-05-11T03:11:27;100476.13;;;16.75;87.82
54948;BME280;41113;41.882;12.530;2023-05-11T03:13:52;100475.38;;;16.67;88.36
54948;BME280;41113;41.882;12.530;2023-05-11T03:16:19;100482.00;;;16.56;88.89
54948;BME280;41113;41.882;12.530;2023-05-11T03:18:45;100475.78;;;16.47;89.37
54948;BME280;41113;41.882;12.530;2023-05-11T03:21:14;100480.56;;;16.45;89.59
54948;BME280;41113;41.882;12.530;2023-05-11T03:23:40;100485.59;;;16.48;89.51
54948;BME280;41113;41.882;12.530;2023-05-11T03:26:06;100485.97;;;16.45;89.50
54948;BME280;41113;41.882;12.530;2023-05-11T03:28:31;100490.72;;;16.43;89.47
54948;BME280;41113;41.882;12.530;2023-05-11T03:30:59;100480.84;;;16.50;89.22
54948;BME280;41113;41.882;12.530;2023-05-11T03:33:25;100482.66;;;16.58;88.69
54948;BME280;41113;41.882;12.530;2023-05-11T03:35:52;100486.91;;;16.61;88.23
54948;BME280;41113;41.882;12.530;2023-05-11T03:38:21;100478.81;;;16.53;88.29
54948;BME280;41113;41.882;12.530;2023-05-11T03:40:48;100478.25;;;16.57;88.12
54948;BME280;41113;41.882;12.530;2023-05-11T03:43:17;100484.38;;;16.59;88.21
54948;BME280;41113;41.882;12.530;2023-05-11T03:45:44;100482.31;;;16.61;88.03
54948;BME280;41113;41.882;12.530;2023-05-11T03:48:13;100490.94;;;16.65;87.89
54948;BME280;41113;41.882;12.530;2023-05-11T03:50:41;100493.44;;;16.74;87.31
54948;BME280;41113;41.882;12.530;2023-05-11T03:53:07;100487.22;;;16.66;87.25
54948;BME280;41113;41.882;12.530;2023-05-11T03:55:33;100494.63;;;16.72;87.34
54948;BME280;41113;41.882;12.530;2023-05-11T03:57:58;100495.31;;;16.74;87.11
54948;BME280;41113;41.882;12.530;2023-05-11T04:00:24;100505.78;;;16.77;86.88
54948;BME280;41113;41.882;12.530;2023-05-11T04:02:50;100504.66;;;16.71;87.06
54948;BME280;41113;41.882;12.530;2023-05-11T04:05:17;100509.69;;;16.74;87.23
54948;BME280;41113;41.882;12.530;2023-05-11T04:07:43;100510.19;;;16.78;86.96
54948;BME280;41113;41.882;12.530;2023-05-11T04:10:10;100511.22;;;16.77;87.26
54948;BME280;41113;41.882;12.530;2023-05-11T04:12:36;100507.34;;;16.71;87.46
54948;BME280;41113;41.882;12.530;2023-05-11T04:15:01;100513.91;;;16.77;87.27
54948;BME280;41113;41.882;12.530;2023-05-11T04:17:27;100511.28;;;16.69;87.25
54948;BME280;41113;41.882;12.530;2023-05-11T04:19:52;100517.91;;;16.66;87.68
54948;BME280;41113;41.882;12.530;2023-05-11T04:22:17;100515.34;;;16.65;87.88
54948;BME280;41113;41.882;12.530;2023-05-11T04:24:43;100516.19;;;16.65;87.97
54948;BME280;41113;41.882;12.530;2023-05-11T04:27:08;100525.25;;;16.80;87.55
54948;BME280;41113;41.882;12.530;2023-05-11T04:29:34;100529.72;;;16.96;86.70
54948;BME280;41113;41.882;12.530;2023-05-11T04:32:00;100534.72;;;17.07;86.05
54948;BME280;41113;41.882;12.530;2023-05-11T04:34:26;100534.94;;;17.21;85.26
54948;BME280;41113;41.882;12.530;2023-05-11T04:36:51;100538.25;;;17.31;84.49
54948;BME280;41113;41.882;12.530;2023-05-11T04:39:16;100531.59;;;17.33;84.58
54948;BME280;41113;41.882;12.530;2023-05-11T04:41:43;100538.34;;;17.37;84.42
54948;BME280;41113;41.882;12.530;2023-05-11T04:44:08;100542.56;;;17.40;84.15
54948;BME280;41113;41.882;12.530;2023-05-11T04:46:34;100545.75;;;17.43;84.22
54948;BME280;41113;41.882;12.530;2023-05-11T04:49:00;100540.97;;;18.27;82.37
54948;BME280;41113;41.882;12.530;2023-05-11T04:51:25;100543.13;;;20.70;73.79
54948;BME280;41113;41.882;12.530;2023-05-11T04:53:51;100545.03;;;23.11;65.31
54948;BME280;41113;41.882;12.530;2023-05-11T04:56:17;100547.44;;;25.16;59.41
54948;BME280;41113;41.882;12.530;2023-05-11T04:58:44;100538.47;;;26.49;55.69
54948;BME280;41113;41.882;12.530;2023-05-11T05:01:11;100535.47;;;27.57;53.25
54948;BME280;41113;41.882;12.530;2023-05-11T05:03:36;100536.34;;;28.13;52.10
54948;BME280;41113;41.882;12.530;2023-05-11T05:06:01;100536.75;;;28.66;51.04
54948;BME280;41113;41.882;12.530;2023-05-11T05:08:27;100545.81;;;29.10;50.04
54948;BME280;41113;41.882;12.530;2023-05-11T05:10:52;100549.09;;;29.66;49.25
54948;BME280;41113;41.882;12.530;2023-05-11T05:13:17;100552.25;;;29.85;48.51
54948;BME280;41113;41.882;12.530;2023-05-11T05:15:43;100554.00;;;30.48;46.96
54948;BME280;41113;41.882;12.530;2023-05-11T05:18:08;100554.66;;;30.60;47.04
54948;BME280;41113;41.882;12.530;2023-05-11T05:20:33;100555.56;;;31.12;46.10
54948;BME280;41113;41.882;12.530;2023-05-11T05:23:00;100555.34;;;31.34;45.40
54948;BME280;41113;41.882;12.530;2023-05-11T05:25:26;100555.34;;;31.49;44.99
54948;BME280;41113;41.882;12.530;2023-05-11T05:27:52;100561.44;;;31.86;44.12
54948;BME280;41113;41.882;12.530;2023-05-11T05:30:17;100565.34;;;31.60;44.34
54948;BME280;41113;41.882;12.530;2023-05-11T05:32:43;100573.69;;;31.80;43.65
54948;BME280;41113;41.882;12.530;2023-05-11T05:35:10;100565.34;;;31.24;38.03
54948;BME280;41113;41.882;12.530;2023-05-11T05:37:35;100582.56;;;31.32;43.74
54948;BME280;41113;41.882;12.530;2023-05-11T05:40:03;100580.53;;;30.96;44.34
54948;BME280;41113;41.882;12.530;2023-05-11T05:42:29;100582.22;;;30.35;45.51
54948;BME280;41113;41.882;12.530;2023-05-11T05:44:54;100571.19;;;31.28;43.49
54948;BME280;41113;41.882;12.530;2023-05-11T05:47:20;100574.16;;;32.23;42.05
54948;BME280;41113;41.882;12.530;2023-05-11T05:49:45;100571.78;;;32.66;40.66
54948;BME280;41113;41.882;12.530;2023-05-11T05:52:10;100574.25;;;32.72;40.56
54948;BME280;41113;41.882;12.530;2023-05-11T05:54:38;100570.19;;;33.04;39.59
54948;BME280;41113;41.882;12.530;2023-05-11T05:57:03;100564.56;;;33.14;38.93
54948;BME280;41113;41.882;12.530;2023-05-11T05:59:30;100570.41;;;33.18;38.25
54948;BME280;41113;41.882;12.530;2023-05-11T06:01:56;100569.50;;;33.27;38.00
54948;BME280;41113;41.882;12.530;2023-05-11T06:04:21;100577.81;;;33.66;37.54
54948;BME280;41113;41.882;12.530;2023-05-11T06:06:46;100573.53;;;33.50;37.34
54948;BME280;41113;41.882;12.530;2023-05-11T06:09:12;100581.78;;;33.60;37.41
54948;BME280;41113;41.882;12.530;2023-05-11T06:11:37;100581.00;;;33.89;37.12
54948;BME280;41113;41.882;12.530;2023-05-11T06:14:03;100578.94;;;33.99;36.47
54948;BME280;41113;41.882;12.530;2023-05-11T06:16:29;100579.38;;;33.78;36.53
54948;BME280;41113;41.882;12.530;2023-05-11T06:18:55;100580.66;;;33.22;37.05
54948;BME280;41113;41.882;12.530;2023-05-11T06:21:20;100578.88;;;32.97;37.01
54948;BME280;41113;41.882;12.530;2023-05-11T06:23:46;100575.03;;;32.88;37.35
54948;BME280;41113;41.882;12.530;2023-05-11T06:26:11;100572.25;;;32.88;36.92
54948;BME280;41113;41.882;12.530;2023-05-11T06:28:37;100580.13;;;32.66;36.64
54948;BME280;41113;41.882;12.530;2023-05-11T06:31:02;100572.41;;;32.47;36.16
54948;BME280;41113;41.882;12.530;2023-05-11T06:33:28;100579.41;;;32.40;36.13
54948;BME280;41113;41.882;12.530;2023-05-11T06:35:53;100577.31;;;31.76;36.79
54948;BME280;41113;41.882;12.530;2023-05-11T06:38:19;100585.00;;;30.35;38.67
54948;BME280;41113;41.882;12.530;2023-05-11T06:40:44;100583.28;;;28.96;40.73
54948;BME280;41113;41.882;12.530;2023-05-11T06:43:10;100583.50;;;28.29;41.90
54948;BME280;41113;41.882;12.530;2023-05-11T06:45:38;100577.59;;;27.65;42.84
54948;BME280;41113;41.882;12.530;2023-05-11T06:48:05;100575.91;;;26.61;44.38
54948;BME280;41113;41.882;12.530;2023-05-11T06:50:31;100569.88;;;24.82;47.68
54948;BME280;41113;41.882;12.530;2023-05-11T06:52:56;100576.44;;;24.27;49.27
54948;BME280;41113;41.882;12.530;2023-05-11T06:55:22;100581.44;;;24.36;49.14
54948;BME280;41113;41.882;12.530;2023-05-11T06:57:47;100572.72;;;24.58;48.24
54948;BME280;41113;41.882;12.530;2023-05-11T07:00:13;100579.22;;;24.08;49.28
54948;BME280;41113;41.882;12.530;2023-05-11T07:02:38;100578.19;;;23.84;49.97
54948;BME280;41113;41.882;12.530;2023-05-11T07:05:04;100585.06;;;23.69;50.03
54948;BME280;41113;41.882;12.530;2023-05-11T07:07:29;100584.97;;;23.57;50.41
54948;BME280;41113;41.882;12.530;2023-05-11T07:09:55;100583.78;;;23.15;51.98
54948;BME280;41113;41.882;12.530;2023-05-11T07:12:20;100589.19;;;23.53;51.22
54948;BME280;41113;41.882;12.530;2023-05-11T07:14:47;100592.34;;;24.00;50.10
54948;BME280;41113;41.882;12.530;2023-05-11T07:17:13;100588.81;;;24.17;49.61
54948;BME280;41113;41.882;12.530;2023-05-11T07:19:39;100591.06;;;24.45;48.48
54948;BME280;41113;41.882;12.530;2023-05-11T07:22:04;100599.56;;;24.37;48.67
54948;BME280;41113;41.882;12.530;2023-05-11T07:24:31;100597.69;;;23.95;49.53
54948;BME280;41113;41.882;12.530;2023-05-11T07:26:56;100598.47;;;23.52;50.97
54948;BME280;41113;41.882;12.530;2023-05-11T07:29:21;100595.56;;;23.15;52.29
54948;BME280;41113;41.882;12.530;2023-05-11T07:31:47;100595.03;;;23.63;51.30
54948;BME280;41113;41.882;12.530;2023-05-11T07:34:13;100593.84;;;24.20;49.99
54948;BME280;41113;41.882;12.530;2023-05-11T07:36:38;100597.06;;;24.72;48.58
54948;BME280;41113;41.882;12.530;2023-05-11T07:39:03;100597.25;;;24.89;48.13
54948;BME280;41113;41.882;12.530;2023-05-11T07:41:29;100597.97;;;24.96;48.26
54948;BME280;41113;41.882;12.530;2023-05-11T07:43:55;100597.97;;;25.15;47.65
54948;BME280;41113;41.882;12.530;2023-05-11T07:46:20;100590.44;;;24.92;47.62
54948;BME280;41113;41.882;12.530;2023-05-11T07:48:46;100587.53;;;24.38;49.14
54948;BME280;41113;41.882;12.530;2023-05-11T07:51:12;100592.50;;;24.30;49.58
54948;BME280;41113;41.882;12.530;2023-05-11T07:53:38;100603.47;;;24.48;49.09
54948;BME280;41113;41.882;12.530;2023-05-11T07:56:04;100593.63;;;24.77;47.96
54948;BME280;41113;41.882;12.530;2023-05-11T07:58:30;100593.88;;;24.87;47.81
54948;BME280;41113;41.882;12.530;2023-05-11T08:00:56;100587.63;;;24.50;48.54
54948;BME280;41113;41.882;12.530;2023-05-11T08:03:22;100594.59;;;24.09;49.53
54948;BME280;41113;41.882;12.530;2023-05-11T08:05:48;100600.13;;;23.84;50.12
54948;BME280;41113;41.882;12.530;2023-05-11T08:08:13;100599.44;;;23.64;50.24
54948;BME280;41113;41.882;12.530;2023-05-11T08:10:40;100597.72;;;24.13;49.01
54948;BME280;41113;41.882;12.530;2023-05-11T08:13:05;100598.69;;;24.43;48.07
54948;BME280;41113;41.882;12.530;2023-05-11T08:15:31;100597.25;;;24.71;47.29
54948;BME280;41113;41.882;12.530;2023-05-11T08:17:58;100596.03;;;24.85;47.14
54948;BME280;41113;41.882;12.530;2023-05-11T08:20:23;100599.16;;;25.07;46.72
54948;BME280;41113;41.882;12.530;2023-05-11T08:22:50;100591.56;;;25.32;45.94
54948;BME280;41113;41.882;12.530;2023-05-11T08:25:16;100589.09;;;25.54;45.24
54948;BME280;41113;41.882;12.530;2023-05-11T08:27:42;100588.50;;;25.52;45.13
54948;BME280;41113;41.882;12.530;2023-05-11T08:30:07;100593.28;;;25.57;44.68
54948;BME280;41113;41.882;12.530;2023-05-11T08:32:35;100589.81;;;25.38;45.35
54948;BME280;41113;41.882;12.530;2023-05-11T08:35:01;100592.59;;;25.08;45.82
54948;BME280;41113;41.882;12.530;2023-05-11T08:37:28;100580.78;;;25.19;45.52
54948;BME280;41113;41.882;12.530;2023-05-11T08:39:54;100585.22;;;25.32;44.99
54948;BME280;41113;41.882;12.530;2023-05-11T08:42:23;100591.00;;;25.42;45.43
54948;BME280;41113;41.882;12.530;2023-05-11T08:44:49;100589.31;;;25.41;45.07
54948;BME280;41113;41.882;12.530;2023-05-11T08:47:18;100583.81;;;25.41;45.42
54948;BME280;41113;41.882;12.530;2023-05-11T08:49:44;100594.41;;;25.26;46.40
54948;BME280;41113;41.882;12.530;2023-05-11T08:52:09;100587.84;;;25.27;47.23
54948;BME280;41113;41.882;12.530;2023-05-11T08:54:35;100592.19;;;25.46;46.98
54948;BME280;41113;41.882;12.530;2023-05-11T08:57:01;100592.56;;;25.50;47.30
54948;BME280;41113;41.882;12.530;2023-05-11T08:59:28;100594.84;;;25.64;46.85
54948;BME280;41113;41.882;12.530;2023-05-11T09:01:54;100594.25;;;25.62;47.30
54948;BME280;41113;41.882;12.530;2023-05-11T09:04:21;100595.78;;;25.58;47.48
54948;BME280;41113;41.882;12.530;2023-05-11T09:06:48;100588.16;;;25.60;47.04
54948;BME280;41113;41.882;12.530;2023-05-11T09:09:15;100590.47;;;25.75;46.60
54948;BME280;41113;41.882;12.530;2023-05-11T09:11:43;100585.69;;;25.82;46.21
54948;BME280;41113;41.882;12.530;2023-05-11T09:14:08;100591.00;;;25.54;47.20
54948;BME280;41113;41.882;12.530;2023-05-11T09:16:33;100590.28;;;25.58;47.15
54948;BME280;41113;41.882;12.530;2023-05-11T09:19:00;100586.41;;;25.78;47.08
54948;BME280;41113;41.882;12.530;2023-05-11T09:21:29;100591.78;;;25.72;47.36
54948;BME280;41113;41.882;12.530;2023-05-11T09:23:56;100582.16;;;25.63;47.36
54948;BME280;41113;41.882;12.530;2023-05-11T09:26:23;100584.63;;;25.30;48.11
54948;BME280;41113;41.882;12.530;2023-05-11T09:28:52;100587.94;;;24.90;48.95
54948;BME280;41113;41.882;12.530;2023-05-11T09:31:42;100577.13;;;24.77;47.56
54948;BME280;41113;41.882;12.530;2023-05-11T09:34:18;100592.34;;;25.09;46.80
54948;BME280;41113;41.882;12.530;2023-05-11T09:36:46;100583.50;;;25.07;48.05
54948;BME280;41113;41.882;12.530;2023-05-11T09:39:13;100582.91;;;24.87;48.48
54948;BME280;41113;41.882;12.530;2023-05-11T09:41:38;100581.97;;;24.93;48.07
54948;BME280;41113;41.882;12.530;2023-05-11T09:44:12;100589.13;;;24.94;46.90
54948;BME280;41113;41.882;12.530;2023-05-11T09:46:40;100586.28;;;24.71;48.07
54948;BME280;41113;41.882;12.530;2023-05-11T09:49:06;100575.16;;;24.66;48.31
54948;BME280;41113;41.882;12.530;2023-05-11T09:51:34;100577.88;;;24.84;48.23
54948;BME280;41113;41.882;12.530;2023-05-11T09:54:14;100581.84;;;24.70;46.35
54948;BME280;41113;41.882;12.530;2023-05-11T09:56:49;100578.91;;;24.35;48.17
54948;BME280;41113;41.882;12.530;2023-05-11T09:59:38;100582.00;;;24.02;48.73
54948;BME280;41113;41.882;12.530;2023-05-11T10:02:25;100584.03;;;23.88;50.26
54948;BME280;41113;41.882;12.530;2023-05-11T10:04:53;100582.94;;;24.14;50.09
54948;BME280;41113;41.882;12.530;2023-05-11T10:07:30;100591.81;;;24.34;50.13
54948;BME280;41113;41.882;12.530;2023-05-11T10:10:01;100586.28;;;24.16;51.36
54948;BME280;41113;41.882;12.530;2023-05-11T10:12:28;100581.84;;;23.97;51.56
54948;BME280;41113;41.882;12.530;2023-05-11T10:15:08;100579.41;;;23.88;52.41
54948;BME280;41113;41.882;12.530;2023-05-11T10:17:34;100578.38;;;24.08;51.83
54948;BME280;41113;41.882;12.530;2023-05-11T10:20:02;100585.47;;;24.15;51.66
54948;BME280;41113;41.882;12.530;2023-05-11T10:22:30;100573.63;;;23.97;52.15
54948;BME280;41113;41.882;12.530;2023-05-11T10:24:57;100586.84;;;23.81;52.59
54948;BME280;41113;41.882;12.530;2023-05-11T10:27:24;100576.59;;;23.70;52.79
54948;BME280;41113;41.882;12.530;2023-05-11T10:29:50;100575.66;;;23.58;53.20
54948;BME280;41113;41.882;12.530;2023-05-11T10:32:17;100574.41;;;23.54;53.44
54948;BME280;41113;41.882;12.530;2023-05-11T10:34:44;100564.41;;;23.66;53.25
54948;BME280;41113;41.882;12.530;2023-05-11T10:37:11;100568.91;;;23.61;53.73
54948;BME280;41113;41.882;12.530;2023-05-11T10:39:38;100574.91;;;23.44;53.90
54948;BME280;41113;41.882;12.530;2023-05-11T10:53:03;100584.84;;;23.70;52.74
54948;BME280;41113;41.882;12.530;2023-05-11T10:55:45;100572.47;;;23.61;52.81
54948;BME280;41113;41.882;12.530;2023-05-11T10:58:20;100578.06;;;23.48;52.83
54948;BME280;41113;41.882;12.530;2023-05-11T11:04:15;100575.63;;;23.33;52.75
54948;BME280;41113;41.882;12.530;2023-05-11T11:06:42;100581.31;;;23.32;53.09
54948;BME280;41113;41.882;12.530;2023-05-11T11:09:15;100575.50;;;23.21;53.10
54948;BME280;41113;41.882;12.530;2023-05-11T11:11:45;100572.44;;;23.11;53.60
54948;BME280;41113;41.882;12.530;2023-05-11T11:14:12;100575.34;;;23.16;53.67
54948;BME280;41113;41.882;12.530;2023-05-11T11:16:38;100572.31;;;23.24;53.47
54948;BME280;41113;41.882;12.530;2023-05-11T11:21:58;100564.00;;;23.06;53.99
54948;BME280;41113;41.882;12.530;2023-05-11T11:27:05;100566.03;;;22.86;54.84
54948;BME280;41113;41.882;12.530;2023-05-11T11:29:33;100560.66;;;23.04;54.48
54948;BME280;41113;41.882;12.530;2023-05-11T11:34:44;100556.38;;;23.15;54.26
54948;BME280;41113;41.882;12.530;2023-05-11T11:37:10;100556.06;;;22.98;54.44
54948;BME280;41113;41.882;12.530;2023-05-11T11:44:40;100558.34;;;23.33;53.66
54948;BME280;41113;41.882;12.530;2023-05-11T11:49:38;100555.16;;;23.11;54.12
54948;BME280;41113;41.882;12.530;2023-05-11T11:52:11;100544.09;;;23.24;53.42
54948;BME280;41113;41.882;12.530;2023-05-11T11:54:43;100545.06;;;23.05;53.77
54948;BME280;41113;41.882;12.530;2023-05-11T11:57:41;100546.38;;;22.95;53.39
54948;BME280;41113;41.882;12.530;2023-05-11T12:00:08;100543.44;;;22.97;53.78
54948;BME280;41113;41.882;12.530;2023-05-11T12:02:41;100552.13;;;22.87;53.52
54948;BME280;41113;41.882;12.530;2023-05-11T12:05:18;100553.81;;;22.88;53.37
54948;BME280;41113;41.882;12.530;2023-05-11T12:07:52;100552.03;;;23.01;53.10
54948;BME280;41113;41.882;12.530;2023-05-11T12:10:20;100558.63;;;22.93;53.58
54948;BME280;41113;41.882;12.530;2023-05-11T12:12:47;100555.72;;;22.75;54.31
54948;BME280;41113;41.882;12.530;2023-05-11T12:15:28;100549.44;;;22.81;54.00
54948;BME280;41113;41.882;12.530;2023-05-11T12:17:54;100554.09;;;22.67;54.11
54948;BME280;41113;41.882;12.530;2023-05-11T12:20:20;100557.13;;;22.52;54.16
54948;BME280;41113;41.882;12.530;2023-05-11T12:22:46;100558.00;;;22.46;54.23
54948;BME280;41113;41.882;12.530;2023-05-11T12:25:14;100550.66;;;22.33;54.73
54948;BME280;41113;41.882;12.530;2023-05-11T12:27:51;100553.00;;;22.30;53.85
54948;BME280;41113;41.882;12.530;2023-05-11T12:30:27;100548.44;;;22.17;53.94
54948;BME280;41113;41.882;12.530;2023-05-11T12:32:53;100539.16;;;22.18;53.19
54948;BME280;41113;41.882;12.530;2023-05-11T12:35:26;100547.09;;;22.33;53.34
54948;BME280;41113;41.882;12.530;2023-05-11T12:37:52;100546.63;;;22.43;52.87
54948;BME280;41113;41.882;12.530;2023-05-11T12:40:18;100543.75;;;22.31;53.23
54948;BME280;41113;41.882;12.530;2023-05-11T12:42:55;100546.22;;;22.39;52.50
54948;BME280;41113;41.882;12.530;2023-05-11T12:45:21;100546.69;;;22.29;52.05
54948;BME280;41113;41.882;12.530;2023-05-11T12:47:50;100550.31;;;22.10;52.89
54948;BME280;41113;41.882;12.530;2023-05-11T12:50:16;100550.72;;;22.20;52.35
54948;BME280;41113;41.882;12.530;2023-05-11T12:52:42;100548.84;;;22.21;52.98
54948;BME280;41113;41.882;12.530;2023-05-11T12:55:10;100551.06;;;22.37;52.17
54948;BME280;41113;41.882;12.530;2023-05-11T12:57:38;100546.47;;;22.31;52.93
54948;BME280;41113;41.882;12.530;2023-05-11T13:00:15;100562.94;;;22.18;52.50
54948;BME280;41113;41.882;12.530;2023-05-11T13:02:54;100558.53;;;22.17;53.03
54948;BME280;41113;41.882;12.530;2023-05-11T13:05:25;100570.22;;;22.37;52.07
54948;BME280;41113;41.882;12.530;2023-05-11T13:08:04;100569.41;;;22.30;50.94
54948;BME280;41113;41.882;12.530;2023-05-11T13:10:30;100566.31;;;22.20;52.49
54948;BME280;41113;41.882;12.530;2023-05-11T13:12:56;100560.63;;;22.21;51.81
54948;BME280;41113;41.882;12.530;2023-05-11T13:15:23;100565.28;;;22.08;52.15
54948;BME280;41113;41.882;12.530;2023-05-11T13:18:05;100573.28;;;22.16;51.62
54948;BME280;41113;41.882;12.530;2023-05-11T13:20:33;100564.34;;;22.33;51.44